createdAt,value
2023-02-28T00:00:50.943Z,101663.31
2023-02-28T00:03:21.226Z,101671.56
2023-02-28T00:05:51.317Z,101677.03
2023-02-28T00:08:21.169Z,101675.94
2023-02-28T00:10:51.169Z,101675.69
2023-02-28T00:13:21.080Z,101675.41
2023-02-28T00:15:50.940Z,101684.75
2023-02-28T00:18:20.822Z,101682.53
2023-02-28T00:20:51.038Z,101689.44
2023-02-28T00:23:21.033Z,101687.81
2023-02-28T00:25:53.842Z,101688.06
2023-02-28T00:28:24.528Z,101693.56
2023-02-28T00:31:12.781Z,101693.84
2023-02-28T00:33:42.970Z,101696.31
2023-02-28T00:36:14.703Z,101701.81
2023-02-28T00:38:45.312Z,101707.06
2023-02-28T00:41:15.472Z,101708.41
2023-02-28T00:43:46.182Z,101714.47
2023-02-28T00:46:16.471Z,101713.66
2023-02-28T00:48:46.607Z,101718.63
2023-02-28T00:51:17.920Z,101712.25
2023-02-28T00:54:03.737Z,101719.16
2023-02-28T00:56:33.841Z,101723.81
2023-02-28T00:59:03.828Z,101718.59
2023-02-28T01:01:33.869Z,101721.63
2023-02-28T01:04:03.761Z,101722.19
2023-02-28T01:06:39.555Z,101723.28
2023-02-28T01:09:11.114Z,101729.88
2023-02-28T01:11:42.287Z,101738.13
2023-02-28T01:14:19.192Z,101735.91
2023-02-28T01:16:49.430Z,101743.63
2023-02-28T01:19:19.574Z,101747.47
2023-02-28T01:21:49.899Z,101746.94
2023-02-28T01:24:38.456Z,101754.88
2023-02-28T01:27:08.488Z,101763.69
2023-02-28T01:29:40.509Z,101755.72
2023-02-28T01:34:58.348Z,101761.47
2023-02-28T01:37:29.625Z,101760.94
2023-02-28T01:39:59.716Z,101766.13
2023-02-28T01:42:29.726Z,101764.22
2023-02-28T01:45:28.268Z,101765.59
2023-02-28T01:48:16.612Z,101765.88
2023-02-28T01:51:13.782Z,101768.06
2023-02-28T01:53:54.726Z,101765.88
2023-02-28T01:56:36.767Z,101779.06
2023-02-28T01:59:08.807Z,101777.94
2023-02-28T02:01:39.154Z,101781.53
2023-02-28T02:04:09.291Z,101783.19
2023-02-28T02:06:46.712Z,101783.19
2023-02-28T02:09:17.531Z,101791.44
2023-02-28T02:11:49.364Z,101793.91
2023-02-28T02:14:29.868Z,101790.34
2023-02-28T02:17:44.396Z,101799.69
2023-02-28T02:20:32.428Z,101801.34
2023-02-28T02:23:32.616Z,101809.31
2023-02-28T02:26:33.111Z,101809.31
2023-02-28T02:29:23.351Z,101808.75
2023-02-28T02:32:06.462Z,101811.50
2023-02-28T02:34:43.471Z,101817.56
2023-02-28T02:37:50.474Z,101812.84
2023-02-28T02:41:19.637Z,101817.25
2023-02-28T02:44:21.720Z,101817.56
2023-02-28T02:46:57.887Z,101818.38
2023-02-28T02:49:52.356Z,101825.81
2023-02-28T02:52:30.028Z,101824.41
2023-02-28T02:55:03.506Z,101825.50
2023-02-28T02:57:37.109Z,101828.00
2023-02-28T03:00:13.207Z,101820.56
2023-02-28T03:02:44.585Z,101823.31
2023-02-28T03:05:37.006Z,101823.06
2023-02-28T03:08:08.812Z,101823.84
2023-02-28T03:10:44.478Z,101827.72
2023-02-28T03:13:37.441Z,101818.59
2023-02-28T03:16:49.802Z,101813.94
2023-02-28T03:20:18.402Z,101820.00
2023-02-28T03:29:20.311Z,101820.25
2023-02-28T03:32:20.309Z,101812.00
2023-02-28T03:35:03.516Z,101817.50
2023-02-28T03:37:37.800Z,101806.19
2023-02-28T03:40:25.696Z,101805.09
2023-02-28T03:43:03.069Z,101805.63
2023-02-28T03:45:37.635Z,101803.41
2023-02-28T03:48:23.924Z,101801.47
2023-02-28T03:51:00.827Z,101794.88
2023-02-28T03:53:54.748Z,101779.19
2023-02-28T03:57:02.146Z,101780.84
2023-02-28T04:00:07.524Z,101780.28
2023-02-28T04:02:56.976Z,101766.50
2023-02-28T04:05:26.650Z,101776.16
2023-02-28T04:10:42.906Z,101758.78
2023-02-28T04:13:30.915Z,101755.78
2023-02-28T04:16:01.281Z,101752.72
2023-02-28T04:18:31.418Z,101751.06
2023-02-28T04:21:04.094Z,101744.47
2023-02-28T04:23:53.790Z,101745.28
2023-02-28T04:26:24.084Z,101730.94
2023-02-28T04:31:39.954Z,101724.06
2023-02-28T04:34:10.296Z,101725.16
2023-02-28T04:37:12.406Z,101711.09
2023-02-28T04:39:43.891Z,101709.19
2023-02-28T04:42:38.535Z,101704.47
2023-02-28T04:45:09.367Z,101697.88
2023-02-28T04:47:57.991Z,101691.25
2023-02-28T04:50:46.869Z,101681.88
2023-02-28T04:53:17.164Z,101694.25
2023-02-28T04:55:48.114Z,101683.75
2023-02-28T04:58:19.300Z,101677.44
2023-02-28T05:00:49.393Z,101671.63
2023-02-28T05:03:20.437Z,101663.38
2023-02-28T05:08:55.591Z,101651.78
2023-02-28T05:11:44.944Z,101645.16
2023-02-28T05:14:17.350Z,101639.09
2023-02-28T05:16:47.454Z,101635.50
2023-02-28T05:19:17.821Z,101639.63
2023-02-28T05:24:45.401Z,101626.66
2023-02-28T05:27:16.139Z,101625.25
2023-02-28T05:29:48.595Z,101613.13
2023-02-28T05:32:18.898Z,101616.41
2023-02-28T05:34:49.280Z,101601.00
2023-02-28T05:37:19.556Z,101595.22
2023-02-28T05:39:49.796Z,101599.31
2023-02-28T05:42:19.694Z,101585.22
2023-02-28T05:44:49.896Z,101581.38
2023-02-28T05:47:20.156Z,101581.09
2023-02-28T05:49:50.257Z,101579.13
2023-02-28T05:52:21.119Z,101574.47
2023-02-28T05:54:51.536Z,101565.09
2023-02-28T05:57:24.681Z,101561.22
2023-02-28T06:02:43.799Z,101557.06
2023-02-28T06:05:18.686Z,101545.19
2023-02-28T06:07:48.993Z,101546.56
2023-02-28T06:10:19.285Z,101543.50
2023-02-28T06:12:50.024Z,101547.38
2023-02-28T06:15:20.181Z,101540.75
2023-02-28T06:17:50.348Z,101525.06
2023-02-28T06:20:20.633Z,101517.59
2023-02-28T06:22:50.921Z,101499.94
2023-02-28T06:25:21.380Z,101504.34
2023-02-28T06:28:09.667Z,101507.09
2023-02-28T06:30:57.742Z,101491.09
2023-02-28T06:33:47.273Z,101481.72
2023-02-28T06:36:19.290Z,101476.19
2023-02-28T06:41:58.645Z,101450.84
2023-02-28T06:44:47.098Z,101447.47
2023-02-28T06:47:35.600Z,101447.47
2023-02-28T06:52:51.659Z,101433.41
2023-02-28T06:55:42.029Z,101432.00
2023-02-28T06:58:30.234Z,101428.13
2023-02-28T07:01:18.884Z,101411.91
2023-02-28T07:06:54.430Z,101402.19
2023-02-28T07:09:24.671Z,101400.25
2023-02-28T07:11:54.824Z,101397.50
2023-02-28T07:14:42.918Z,101386.72
2023-02-28T07:17:15.375Z,101387.84
2023-02-28T07:19:45.566Z,101383.97
2023-02-28T07:22:16.077Z,101384.75
2023-02-28T07:24:46.980Z,101379.78
2023-02-28T07:27:26.771Z,101385.28
2023-02-28T07:30:15.596Z,101382.22
2023-02-28T07:32:45.989Z,101371.50
2023-02-28T07:35:18.398Z,101366.81
2023-02-28T07:37:50.296Z,101365.69
2023-02-28T07:40:22.135Z,101358.53
2023-02-28T07:42:52.498Z,101364.03
2023-02-28T07:45:23.142Z,101365.69
2023-02-28T07:47:53.301Z,101360.69
2023-02-28T07:50:24.369Z,101358.78
2023-02-28T07:52:55.408Z,101351.63
2023-02-28T07:55:43.341Z,101349.38
2023-02-28T08:03:47.390Z,101345.19
2023-02-28T08:06:36.255Z,101346.31
2023-02-28T08:09:06.448Z,101336.41
2023-02-28T08:11:36.578Z,101331.72
2023-02-28T08:14:06.569Z,101328.13
2023-02-28T08:16:54.917Z,101326.22
2023-02-28T08:19:43.649Z,101324.25
2023-02-28T08:22:14.697Z,101327.53
2023-02-28T08:24:46.913Z,101319.88
2023-02-28T08:27:17.807Z,101314.06
2023-02-28T08:29:47.926Z,101321.50
2023-02-28T08:32:29.422Z,101314.06
2023-02-28T08:35:00.884Z,101321.19
2023-02-28T08:37:52.318Z,101319.59
2023-02-28T08:40:23.737Z,101322.03
2023-02-28T08:42:53.953Z,101322.84
2023-02-28T08:45:23.826Z,101327.53
2023-02-28T08:47:55.765Z,101322.84
2023-02-28T08:50:46.473Z,101315.69
2023-02-28T08:53:36.684Z,101317.31
2023-02-28T08:56:25.220Z,101320.06
2023-02-28T08:59:13.414Z,101312.94
2023-02-28T09:01:45.689Z,101309.34
2023-02-28T09:04:34.142Z,101310.16
2023-02-28T09:07:22.607Z,101311.00
2023-02-28T09:09:58.691Z,101304.66
2023-02-28T09:12:30.082Z,101308.75
2023-02-28T09:14:59.778Z,101313.44
2023-02-28T09:17:30.899Z,101308.75
2023-02-28T09:20:19.425Z,101314.28
2023-02-28T09:22:49.512Z,101311.53
2023-02-28T09:25:19.498Z,101304.88
2023-02-28T09:27:49.393Z,101304.06
2023-02-28T09:30:19.571Z,101303.78
2023-02-28T09:32:55.151Z,101299.38
2023-02-28T09:35:27.013Z,101300.19
2023-02-28T09:37:57.514Z,101301.00
2023-02-28T09:40:55.489Z,101303.78
2023-02-28T09:43:30.114Z,101306.53
2023-02-28T09:46:09.302Z,101298.25
2023-02-28T09:48:59.424Z,101306.53
2023-02-28T09:51:52.129Z,101304.56
2023-02-28T09:54:27.740Z,101312.03
2023-02-28T09:57:08.608Z,101306.53
2023-02-28T09:59:44.710Z,101307.34
2023-02-28T10:02:20.653Z,101302.66
2023-02-28T10:04:54.721Z,101307.34
2023-02-28T10:07:58.145Z,101310.94
2023-02-28T10:10:39.442Z,101312.84
2023-02-28T10:14:04.458Z,101320.00
2023-02-28T10:17:18.456Z,101316.13
2023-02-28T10:19:55.017Z,101320.84
2023-02-28T10:22:30.242Z,101325.19
2023-02-28T10:25:06.957Z,101322.44
2023-02-28T10:27:38.326Z,101328.78
2023-02-28T10:30:26.321Z,101335.44
2023-02-28T10:32:57.002Z,101337.88
2023-02-28T10:35:47.940Z,101340.63
2023-02-28T10:38:30.738Z,101336.75
2023-02-28T10:41:26.679Z,101341.16
2023-02-28T10:44:16.465Z,101339.50
2023-02-28T10:46:49.610Z,101341.47
2023-02-28T10:49:32.770Z,101331.22
2023-02-28T10:52:04.916Z,101347.78
2023-02-28T10:54:40.966Z,101342.25
2023-02-28T10:57:24.301Z,101340.63
2023-02-28T10:59:59.306Z,101344.22
2023-02-28T11:02:49.568Z,101341.47
2023-02-28T11:05:34.389Z,101346.13
2023-02-28T11:08:15.943Z,101353.28
2023-02-28T11:10:52.685Z,101349.72
2023-02-28T11:13:26.254Z,101354.13
2023-02-28T11:16:02.321Z,101352.50
2023-02-28T11:18:44.921Z,101361.28
2023-02-28T11:21:43.374Z,101356.88
2023-02-28T11:24:40.825Z,101352.50
2023-02-28T11:27:34.311Z,101354.13
2023-02-28T11:30:04.657Z,101354.41
2023-02-28T11:32:35.111Z,101361.56
2023-02-28T11:35:44.334Z,101365.16
2023-02-28T11:38:16.307Z,101372.59
2023-02-28T11:40:59.642Z,101374.56
2023-02-28T11:44:17.199Z,101374.56
2023-02-28T11:47:02.474Z,101372.59
2023-02-28T11:50:00.828Z,101381.97
2023-02-28T11:52:54.855Z,101378.09
2023-02-28T11:55:31.335Z,101383.94
2023-02-28T11:58:42.908Z,101387.22
2023-02-28T12:01:54.322Z,101393.53
2023-02-28T12:04:40.605Z,101389.13
2023-02-28T12:07:29.487Z,101394.97
2023-02-28T12:10:05.151Z,101400.16
2023-02-28T12:12:53.288Z,101405.69
2023-02-28T12:15:28.236Z,101409.56
2023-02-28T12:18:16.271Z,101417.81
2023-02-28T12:20:52.783Z,101420.00
2023-02-28T12:23:45.416Z,101415.06
2023-02-28T12:26:40.936Z,101411.50
2023-02-28T12:29:19.662Z,101424.97
2023-02-28T12:32:15.913Z,101424.19
2023-02-28T12:34:54.606Z,101435.41
2023-02-28T12:37:53.407Z,101440.94
2023-02-28T12:40:25.977Z,101436.00
2023-02-28T12:43:05.502Z,101444.53
2023-02-28T12:45:45.513Z,101453.09
2023-02-28T12:48:49.290Z,101462.19
2023-02-28T12:51:21.016Z,101461.88
2023-02-28T12:53:59.688Z,101464.63
2023-02-28T12:56:50.964Z,101479.53
2023-02-28T12:59:45.520Z,101475.66
2023-02-28T13:02:36.846Z,101481.19
2023-02-28T13:37:37.568Z,101530.47
2023-02-28T13:40:49.326Z,101526.63
2023-02-28T13:43:34.688Z,101535.72
2023-02-28T13:46:23.127Z,101545.63
2023-02-28T13:48:59.746Z,101547.31
2023-02-28T13:51:54.519Z,101543.94
2023-02-28T13:54:57.795Z,101546.63
2023-02-28T13:57:50.520Z,101548.50
2023-02-28T14:00:30.194Z,101555.66
2023-02-28T14:03:25.882Z,101561.72
2023-02-28T14:06:39.476Z,101558.06
2023-02-28T14:09:33.689Z,101564.41
2023-02-28T14:12:44.787Z,101562.47
2023-02-28T14:15:34.093Z,101565.75
2023-02-28T14:18:31.253Z,101565.22
2023-02-28T14:21:51.402Z,101562.19
2023-02-28T14:25:02.206Z,101570.94
2023-02-28T14:27:59.879Z,101567.97
2023-02-28T14:31:04.652Z,101572.97
2023-02-28T14:34:07.230Z,101567.97
2023-02-28T14:36:43.028Z,101561.94
2023-02-28T14:39:36.799Z,101567.75
2023-02-28T14:42:46.638Z,101572.16
2023-02-28T14:45:27.646Z,101559.69
2023-02-28T14:48:04.049Z,101572.69
2023-02-28T14:50:40.459Z,101564.94
2023-02-28T14:53:23.573Z,101565.22
2023-02-28T14:55:59.258Z,101574.81
2023-02-28T14:58:34.771Z,101572.91
2023-02-28T15:01:08.817Z,101576.78
2023-02-28T15:03:48.793Z,101566.28
2023-02-28T15:09:14.758Z,101582.81
2023-02-28T15:11:52.808Z,101579.00
2023-02-28T15:14:27.887Z,101580.34
2023-02-28T15:17:06.491Z,101577.34
2023-02-28T15:19:44.803Z,101581.22
2023-02-28T15:22:23.592Z,101587.28
2023-02-28T15:24:58.030Z,101581.41
2023-02-28T15:27:35.363Z,101588.34
2023-02-28T15:30:12.391Z,101579.00
2023-02-28T15:32:43.549Z,101573.78
2023-02-28T15:35:30.065Z,101582.88
2023-02-28T15:38:22.421Z,101581.47
2023-02-28T15:41:00.429Z,101583.41
2023-02-28T15:43:31.973Z,101581.22
2023-02-28T15:46:06.876Z,101588.69
2023-02-28T15:48:54.908Z,101585.94
2023-02-28T15:51:39.727Z,101587.84
2023-02-28T15:54:12.779Z,101595.00
2023-02-28T15:56:48.320Z,101587.31
2023-02-28T15:59:53.425Z,101595.59
2023-02-28T16:02:33.106Z,101603.59
2023-02-28T16:05:12.518Z,101603.38
2023-02-28T16:07:46.102Z,101601.63
2023-02-28T16:10:19.831Z,101601.63
2023-02-28T16:12:50.026Z,101604.94
2023-02-28T16:15:32.606Z,101601.09
2023-02-28T16:18:02.702Z,101602.25
2023-02-28T16:20:34.707Z,101598.88
2023-02-28T16:23:06.001Z,101596.13
2023-02-28T16:25:45.639Z,101595.00
2023-02-28T16:28:37.467Z,101602.75
2023-02-28T16:31:10.468Z,101605.50
2023-02-28T16:33:57.376Z,101606.63
2023-02-28T16:36:35.806Z,101605.00
2023-02-28T16:39:06.793Z,101599.50
2023-02-28T16:41:38.207Z,101598.44
2023-02-28T16:44:16.343Z,101596.78
2023-02-28T16:46:46.467Z,101602.00
2023-02-28T16:49:16.531Z,101593.19
2023-02-28T16:51:46.782Z,101595.16
2023-02-28T16:54:16.884Z,101588.28
2023-02-28T16:56:51.943Z,101593.50
2023-02-28T16:59:28.003Z,101593.50
2023-02-28T17:02:02.031Z,101594.03
2023-02-28T17:04:50.764Z,101592.69
2023-02-28T17:07:21.045Z,101597.91
2023-02-28T17:09:52.439Z,101591.84
2023-02-28T17:12:24.030Z,101586.34
2023-02-28T17:14:54.080Z,101583.06
2023-02-28T17:17:25.361Z,101589.09
2023-02-28T17:19:55.571Z,101588.56
2023-02-28T17:22:26.361Z,101581.41
2023-02-28T17:24:59.546Z,101585.28
2023-02-28T17:27:48.303Z,101584.16
2023-02-28T17:30:50.191Z,101576.47
2023-02-28T17:33:32.378Z,101573.72
2023-02-28T17:36:05.721Z,101572.91
2023-02-28T17:38:45.641Z,101574.88
2023-02-28T17:41:15.853Z,101568.50
2023-02-28T17:43:45.857Z,101572.09
2023-02-28T17:46:23.733Z,101557.72
2023-02-28T17:48:57.772Z,101565.44
2023-02-28T17:51:28.649Z,101561.09
2023-02-28T17:53:58.973Z,101554.72
2023-02-28T17:56:30.759Z,101557.44
2023-02-28T17:59:01.795Z,101555.28
2023-02-28T18:01:31.923Z,101551.13
2023-02-28T18:04:02.070Z,101548.38
2023-02-28T18:06:52.889Z,101542.63
2023-02-28T18:09:25.704Z,101544.78
2023-02-28T18:11:57.715Z,101542.34
2023-02-28T18:14:33.188Z,101530.47
2023-02-28T18:17:08.232Z,101534.34
2023-02-28T18:19:38.722Z,101521.69
2023-02-28T18:22:11.941Z,101520.56
2023-02-28T18:24:43.579Z,101511.50
2023-02-28T18:27:25.659Z,101503.50
2023-02-28T18:29:55.842Z,101501.06
2023-02-28T18:32:25.811Z,101503.81
2023-02-28T18:34:55.880Z,101497.19
2023-02-28T18:37:25.940Z,101490.25
2023-02-28T18:39:56.345Z,101491.09
2023-02-28T18:42:26.375Z,101484.53
2023-02-28T18:44:56.256Z,101478.72
2023-02-28T18:47:49.002Z,101482.00
2023-02-28T18:50:19.487Z,101468.84
2023-02-28T18:52:49.533Z,101468.84
2023-02-28T18:55:21.127Z,101466.56
2023-02-28T18:57:51.258Z,101462.47
2023-02-28T19:03:06.877Z,101461.69
2023-02-28T19:05:37.183Z,101449.81
2023-02-28T19:08:26.411Z,101445.16
2023-02-28T19:10:56.439Z,101445.94
2023-02-28T19:13:26.695Z,101440.44
2023-02-28T19:16:04.931Z,101441.84
2023-02-28T19:18:41.767Z,101439.63
2023-02-28T19:21:13.727Z,101439.31
2023-02-28T19:23:58.152Z,101432.16
2023-02-28T19:26:32.020Z,101439.38
2023-02-28T19:29:10.911Z,101435.00
2023-02-28T19:31:49.845Z,101430.59
2023-02-28T19:34:20.008Z,101439.91
2023-02-28T19:36:49.982Z,101430.53
2023-02-28T19:39:21.056Z,101425.91
2023-02-28T19:41:51.979Z,101418.19
2023-02-28T19:44:22.548Z,101425.06
2023-02-28T19:46:52.780Z,101416.22
2023-02-28T19:49:22.694Z,101415.47
2023-02-28T19:51:52.701Z,101409.38
2023-02-28T19:54:22.756Z,101407.69
2023-02-28T19:56:52.625Z,101408.53
2023-02-28T19:59:38.276Z,101411.84
2023-02-28T20:02:15.915Z,101406.41
2023-02-28T20:04:48.995Z,101395.91
2023-02-28T20:07:22.762Z,101399.16
2023-02-28T20:09:52.813Z,101395.91
2023-02-28T20:12:25.287Z,101395.38
2023-02-28T20:14:58.836Z,101395.66
2023-02-28T20:17:30.714Z,101391.22
2023-02-28T20:20:01.921Z,101392.91
2023-02-28T20:22:31.995Z,101390.16
2023-02-28T20:25:01.832Z,101389.34
2023-02-28T20:27:31.747Z,101394.84
2023-02-28T20:30:01.997Z,101386.06
2023-02-28T20:32:32.872Z,101392.38
2023-02-28T20:35:02.930Z,101394.84
2023-02-28T20:37:32.818Z,101388.25
2023-02-28T20:40:02.950Z,101392.09
2023-02-28T20:42:34.648Z,101393.44
2023-02-28T20:45:07.160Z,101387.41
2023-02-28T20:47:37.571Z,101379.97
2023-02-28T20:50:08.202Z,101379.38
2023-02-28T20:52:38.375Z,101379.97
2023-02-28T20:55:09.241Z,101384.13
2023-02-28T20:57:39.560Z,101382.19
2023-02-28T21:00:17.775Z,101375.63
2023-02-28T21:02:48.043Z,101377.59
2023-02-28T21:05:18.611Z,101371.47
2023-02-28T21:07:49.754Z,101379.44
2023-02-28T21:10:19.972Z,101371.19
2023-02-28T21:12:52.835Z,101379.97
2023-02-28T21:15:23.650Z,101370.97
2023-02-28T21:17:53.725Z,101375.34
2023-02-28T21:20:26.571Z,101364.34
2023-02-28T21:22:56.880Z,101366.78
2023-02-28T21:25:27.317Z,101362.44
2023-02-28T21:27:57.975Z,101361.88
2023-02-28T21:30:28.128Z,101358.53
2023-02-28T21:32:59.842Z,101357.78
2023-02-28T21:35:31.681Z,101351.44
2023-02-28T21:38:01.982Z,101345.66
2023-02-28T21:40:32.139Z,101361.34
2023-02-28T21:43:02.741Z,101360.53
2023-02-28T21:45:33.403Z,101355.59
2023-02-28T21:48:03.432Z,101359.47
2023-02-28T21:50:33.464Z,101362.22
2023-02-28T21:53:05.818Z,101357.31
2023-02-28T21:55:37.531Z,101362.53
2023-02-28T21:58:09.985Z,101358.66
2023-02-28T22:00:40.620Z,101362.16
2023-02-28T22:03:11.670Z,101355.81
2023-02-28T22:05:41.903Z,101363.34
2023-02-28T22:08:13.395Z,101356.41
2023-02-28T22:10:43.504Z,101359.69
2023-02-28T22:13:14.753Z,101363.56
2023-02-28T22:15:44.839Z,101351.00
2023-02-28T22:18:14.683Z,101358.13
2023-02-28T22:20:45.035Z,101357.63
2023-02-28T22:23:15.065Z,101361.47
2023-02-28T22:25:44.944Z,101359.00
2023-02-28T22:28:15.579Z,101370.81
2023-02-28T22:30:46.115Z,101376.59
2023-02-28T22:33:19.731Z,101377.16
2023-02-28T22:35:49.756Z,101376.91
2023-02-28T22:38:20.327Z,101388.66
2023-02-28T22:40:50.403Z,101388.34
2023-02-28T22:43:20.241Z,101386.50
2023-02-28T22:45:50.824Z,101390.84
2023-02-28T22:48:20.857Z,101396.16
2023-02-28T22:50:50.874Z,101396.16
2023-02-28T22:53:21.015Z,101398.34
2023-02-28T22:55:59.312Z,101403.59
2023-02-28T23:01:11.311Z,101402.78
2023-02-28T23:03:43.123Z,101406.00
2023-02-28T23:06:26.056Z,101408.06
2023-02-28T23:08:59.912Z,101415.47
2023-02-28T23:11:39.494Z,101426.56
2023-02-28T23:14:10.454Z,101419.91
2023-02-28T23:16:44.441Z,101418.56
2023-02-28T23:19:34.700Z,101422.97
2023-02-28T23:22:06.125Z,101416.88
2023-02-28T23:24:37.390Z,101432.28
2023-02-28T23:27:09.301Z,101432.00
2023-02-28T23:29:39.493Z,101439.44
2023-02-28T23:32:09.467Z,101443.28
2023-02-28T23:34:39.851Z,101449.03
2023-02-28T23:37:09.847Z,101449.34
2023-02-28T23:39:40.697Z,101450.41
2023-02-28T23:42:10.690Z,101457.88
2023-02-28T23:44:41.251Z,101461.44
2023-02-28T23:47:16.632Z,101470.78
2023-02-28T23:49:47.227Z,101462.81
2023-02-28T23:52:17.826Z,101465.28
2023-02-28T23:54:48.918Z,101468.03
2023-02-28T23:57:19.117Z,101471.06
